sensor_id;sensor_type;location;lat;lon;timestamp;pressure;altitude;pressure_sealevel;temperature;humidity
55733;BME280;41637;52.364;9.910;2022-07-06T00:00:58;101570.86;;;14.94;69.15
55733;BME280;41637;52.364;9.910;2022-07-06T00:03:25;101571.85;;;14.94;68.98
55733;BME280;41637;52.364;9.910;2022-07-06T00:05:52;101570.84;;;14.96;69.16
55733;BME280;41637;52.364;9.910;2022-07-06T00:08:19;101568.55;;;14.97;69.20
55733;BME280;41637;52.364;9.910;2022-07-06T00:10:46;101570.59;;;14.98;69.36
55733;BME280;41637;52.364;9.910;2022-07-06T00:13:13;101566.77;;;14.98;69.32
55733;BME280;41637;52.364;9.910;2022-07-06T00:15:40;101568.23;;;14.98;69.43
55733;BME280;41637;52.364;9.910;2022-07-06T00:18:07;101564.48;;;14.97;69.32
55733;BME280;41637;52.364;9.910;2022-07-06T00:20:35;101564.54;;;14.98;69.14
55733;BME280;41637;52.364;9.910;2022-07-06T00:23:02;101565.77;;;14.99;69.07
55733;BME280;41637;52.364;9.910;2022-07-06T00:25:29;101566.05;;;15.03;68.82
55733;BME280;41637;52.364;9.910;2022-07-06T00:27:56;101567.48;;;15.05;68.53
55733;BME280;41637;52.364;9.910;2022-07-06T00:30:28;101563.81;;;15.10;68.13
55733;BME280;41637;52.364;9.910;2022-07-06T00:32:55;101558.64;;;15.13;67.25
55733;BME280;41637;52.364;9.910;2022-07-06T00:35:22;101559.66;;;15.16;66.63
55733;BME280;41637;52.364;9.910;2022-07-06T00:37:49;101562.23;;;15.20;65.96
55733;BME280;41637;52.364;9.910;2022-07-06T00:40:16;101556.80;;;15.23;65.37
55733;BME280;41637;52.364;9.910;2022-07-06T00:42:46;101561.40;;;15.28;65.07
55733;BME280;41637;52.364;9.910;2022-07-06T00:45:14;101560.13;;;15.32;64.67
55733;BME280;41637;52.364;9.910;2022-07-06T00:47:42;101555.05;;;15.34;64.14
55733;BME280;41637;52.364;9.910;2022-07-06T00:50:11;101553.27;;;15.33;63.81
55733;BME280;41637;52.364;9.910;2022-07-06T00:52:43;101551.98;;;15.34;63.76
55733;BME280;41637;52.364;9.910;2022-07-06T00:55:11;101555.55;;;15.34;63.48
55733;BME280;41637;52.364;9.910;2022-07-06T00:57:38;101561.30;;;15.34;63.34
55733;BME280;41637;52.364;9.910;2022-07-06T01:00:08;101561.11;;;15.32;63.46
55733;BME280;41637;52.364;9.910;2022-07-06T01:02:37;101567.73;;;15.31;63.37
55733;BME280;41637;52.364;9.910;2022-07-06T01:05:05;101567.24;;;15.28;63.13
55733;BME280;41637;52.364;9.910;2022-07-06T01:07:33;101562.46;;;15.27;63.13
55733;BME280;41637;52.364;9.910;2022-07-06T01:10:02;101562.48;;;15.26;62.86
55733;BME280;41637;52.364;9.910;2022-07-06T01:12:29;101562.85;;;15.26;62.32
55733;BME280;41637;52.364;9.910;2022-07-06T01:14:57;101562.38;;;15.27;62.35
55733;BME280;41637;52.364;9.910;2022-07-06T01:17:25;101561.53;;;15.26;62.76
55733;BME280;41637;52.364;9.910;2022-07-06T01:19:52;101557.62;;;15.25;62.98
55733;BME280;41637;52.364;9.910;2022-07-06T01:22:20;101557.75;;;15.26;63.07
55733;BME280;41637;52.364;9.910;2022-07-06T01:24:46;101560.98;;;15.27;63.22
55733;BME280;41637;52.364;9.910;2022-07-06T01:27:13;101560.78;;;15.28;63.34
55733;BME280;41637;52.364;9.910;2022-07-06T01:29:41;101559.16;;;15.29;63.62
55733;BME280;41637;52.364;9.910;2022-07-06T01:32:08;101557.16;;;15.31;63.79
55733;BME280;41637;52.364;9.910;2022-07-06T01:34:35;101559.56;;;15.32;63.95
55733;BME280;41637;52.364;9.910;2022-07-06T01:37:02;101557.25;;;15.32;64.15
55733;BME280;41637;52.364;9.910;2022-07-06T01:39:29;101560.25;;;15.32;64.19
55733;BME280;41637;52.364;9.910;2022-07-06T01:41:56;101550.44;;;15.33;64.27
55733;BME280;41637;52.364;9.910;2022-07-06T01:44:23;101551.84;;;15.34;64.25
55733;BME280;41637;52.364;9.910;2022-07-06T01:46:50;101553.88;;;15.32;64.19
55733;BME280;41637;52.364;9.910;2022-07-06T01:49:17;101553.23;;;15.29;64.17
55733;BME280;41637;52.364;9.910;2022-07-06T01:51:44;101551.74;;;15.28;64.24
55733;BME280;41637;52.364;9.910;2022-07-06T01:54:11;101551.94;;;15.27;64.55
55733;BME280;41637;52.364;9.910;2022-07-06T01:56:39;101554.08;;;15.24;65.04
55733;BME280;41637;52.364;9.910;2022-07-06T01:59:06;101545.77;;;15.22;65.15
55733;BME280;41637;52.364;9.910;2022-07-06T02:01:32;101546.60;;;15.20;65.16
55733;BME280;41637;52.364;9.910;2022-07-06T02:04:00;101541.77;;;15.18;65.10
55733;BME280;41637;52.364;9.910;2022-07-06T02:06:27;101544.05;;;15.17;65.38
55733;BME280;41637;52.364;9.910;2022-07-06T02:08:55;101542.04;;;15.16;65.43
55733;BME280;41637;52.364;9.910;2022-07-06T02:11:22;101541.11;;;15.15;65.73
55733;BME280;41637;52.364;9.910;2022-07-06T02:13:49;101541.34;;;15.13;66.06
55733;BME280;41637;52.364;9.910;2022-07-06T02:16:17;101542.02;;;15.13;66.11
55733;BME280;41637;52.364;9.910;2022-07-06T02:18:44;101541.84;;;15.12;66.60
55733;BME280;41637;52.364;9.910;2022-07-06T02:21:11;101535.64;;;15.10;66.67
55733;BME280;41637;52.364;9.910;2022-07-06T02:23:38;101538.45;;;15.10;66.80
55733;BME280;41637;52.364;9.910;2022-07-06T02:26:05;101543.05;;;15.09;66.84
55733;BME280;41637;52.364;9.910;2022-07-06T02:28:32;101544.23;;;15.06;67.04
55733;BME280;41637;52.364;9.910;2022-07-06T02:30:59;101546.59;;;15.04;67.34
55733;BME280;41637;52.364;9.910;2022-07-06T02:33:27;101548.69;;;15.02;67.67
55733;BME280;41637;52.364;9.910;2022-07-06T02:35:54;101548.29;;;14.99;67.54
55733;BME280;41637;52.364;9.910;2022-07-06T02:38:21;101554.73;;;14.96;68.03
55733;BME280;41637;52.364;9.910;2022-07-06T02:40:49;101550.19;;;14.92;68.25
55733;BME280;41637;52.364;9.910;2022-07-06T02:43:15;101547.79;;;14.88;68.55
55733;BME280;41637;52.364;9.910;2022-07-06T02:45:43;101546.09;;;14.86;68.76
55733;BME280;41637;52.364;9.910;2022-07-06T02:48:10;101557.40;;;14.84;69.05
55733;BME280;41637;52.364;9.910;2022-07-06T02:50:36;101562.13;;;14.80;69.11
55733;BME280;41637;52.364;9.910;2022-07-06T02:53:04;101561.29;;;14.78;69.19
55733;BME280;41637;52.364;9.910;2022-07-06T02:55:31;101562.86;;;14.77;69.27
55733;BME280;41637;52.364;9.910;2022-07-06T02:57:58;101562.76;;;14.74;69.51
55733;BME280;41637;52.364;9.910;2022-07-06T03:00:24;101560.41;;;14.72;69.57
55733;BME280;41637;52.364;9.910;2022-07-06T03:02:51;101563.69;;;14.69;69.80
55733;BME280;41637;52.364;9.910;2022-07-06T03:05:18;101563.11;;;14.66;69.85
55733;BME280;41637;52.364;9.910;2022-07-06T03:07:45;101563.14;;;14.65;69.74
55733;BME280;41637;52.364;9.910;2022-07-06T03:10:12;101560.05;;;14.64;69.90
55733;BME280;41637;52.364;9.910;2022-07-06T03:12:39;101561.14;;;14.66;69.75
55733;BME280;41637;52.364;9.910;2022-07-06T03:15:07;101561.78;;;14.65;69.83
55733;BME280;41637;52.364;9.910;2022-07-06T03:17:36;101566.13;;;14.64;69.94
55733;BME280;41637;52.364;9.910;2022-07-06T03:20:07;101560.00;;;14.62;70.19
55733;BME280;41637;52.364;9.910;2022-07-06T03:22:34;101559.40;;;14.61;70.26
55733;BME280;41637;52.364;9.910;2022-07-06T03:25:00;101557.73;;;14.61;70.25
55733;BME280;41637;52.364;9.910;2022-07-06T03:27:27;101557.19;;;14.63;70.07
55733;BME280;41637;52.364;9.910;2022-07-06T03:29:54;101556.87;;;14.61;70.31
55733;BME280;41637;52.364;9.910;2022-07-06T03:32:20;101555.09;;;14.58;70.58
55733;BME280;41637;52.364;9.910;2022-07-06T03:34:48;101560.88;;;14.57;70.78
55733;BME280;41637;52.364;9.910;2022-07-06T03:37:15;101558.81;;;14.57;70.54
55733;BME280;41637;52.364;9.910;2022-07-06T03:39:42;101560.98;;;14.57;70.77
55733;BME280;41637;52.364;9.910;2022-07-06T03:42:09;101560.77;;;14.59;70.93
55733;BME280;41637;52.364;9.910;2022-07-06T03:44:41;101563.16;;;14.59;70.81
55733;BME280;41637;52.364;9.910;2022-07-06T03:47:08;101562.05;;;14.59;70.89
55733;BME280;41637;52.364;9.910;2022-07-06T03:49:35;101554.15;;;14.60;70.98
55733;BME280;41637;52.364;9.910;2022-07-06T03:52:02;101555.91;;;14.63;70.72
55733;BME280;41637;52.364;9.910;2022-07-06T03:54:28;101554.05;;;14.67;70.84
55733;BME280;41637;52.364;9.910;2022-07-06T03:56:55;101556.85;;;14.71;70.83
55733;BME280;41637;52.364;9.910;2022-07-06T03:59:23;101556.50;;;14.72;70.93
55733;BME280;41637;52.364;9.910;2022-07-06T04:01:50;101562.17;;;14.76;70.78
55733;BME280;41637;52.364;9.910;2022-07-06T04:04:19;101563.92;;;14.79;70.94
55733;BME280;41637;52.364;9.910;2022-07-06T04:06:46;101565.23;;;14.81;70.86
55733;BME280;41637;52.364;9.910;2022-07-06T04:09:12;101569.94;;;14.85;70.89
55733;BME280;41637;52.364;9.910;2022-07-06T04:11:40;101574.71;;;14.85;70.73
55733;BME280;41637;52.364;9.910;2022-07-06T04:14:07;101577.30;;;14.86;70.61
55733;BME280;41637;52.364;9.910;2022-07-06T04:16:34;101574.54;;;14.87;70.77
55733;BME280;41637;52.364;9.910;2022-07-06T04:19:01;101573.77;;;14.88;70.64
55733;BME280;41637;52.364;9.910;2022-07-06T04:21:28;101576.41;;;14.89;70.57
55733;BME280;41637;52.364;9.910;2022-07-06T04:23:55;101575.38;;;14.90;70.64
55733;BME280;41637;52.364;9.910;2022-07-06T04:26:22;101579.20;;;14.91;70.72
55733;BME280;41637;52.364;9.910;2022-07-06T04:28:49;101581.74;;;14.89;70.95
55733;BME280;41637;52.364;9.910;2022-07-06T04:31:16;101584.52;;;14.90;70.80
55733;BME280;41637;52.364;9.910;2022-07-06T04:33:43;101590.69;;;14.87;71.10
55733;BME280;41637;52.364;9.910;2022-07-06T04:36:10;101589.83;;;14.85;71.15
55733;BME280;41637;52.364;9.910;2022-07-06T04:38:38;101588.96;;;14.85;71.30
55733;BME280;41637;52.364;9.910;2022-07-06T04:41:05;101589.98;;;14.92;71.23
55733;BME280;41637;52.364;9.910;2022-07-06T04:43:31;101588.86;;;14.97;71.09
55733;BME280;41637;52.364;9.910;2022-07-06T04:45:59;101587.43;;;15.03;70.89
55733;BME280;41637;52.364;9.910;2022-07-06T04:48:29;101589.56;;;15.13;70.85
55733;BME280;41637;52.364;9.910;2022-07-06T04:50:56;101590.30;;;15.24;70.46
55733;BME280;41637;52.364;9.910;2022-07-06T04:53:23;101593.45;;;15.32;70.49
55733;BME280;41637;52.364;9.910;2022-07-06T04:55:50;101593.86;;;15.41;70.28
55733;BME280;41637;52.364;9.910;2022-07-06T04:58:17;101594.90;;;15.47;69.90
55733;BME280;41637;52.364;9.910;2022-07-06T05:00:43;101596.98;;;15.53;69.52
55733;BME280;41637;52.364;9.910;2022-07-06T05:03:10;101596.45;;;15.56;69.05
55733;BME280;41637;52.364;9.910;2022-07-06T05:05:37;101585.92;;;15.60;69.11
55733;BME280;41637;52.364;9.910;2022-07-06T05:08:04;101583.33;;;15.67;69.10
55733;BME280;41637;52.364;9.910;2022-07-06T05:10:30;101580.41;;;15.75;69.02
55733;BME280;41637;52.364;9.910;2022-07-06T05:12:57;101577.39;;;15.79;68.81
55733;BME280;41637;52.364;9.910;2022-07-06T05:15:25;101572.80;;;15.84;68.45
55733;BME280;41637;52.364;9.910;2022-07-06T05:17:51;101575.44;;;15.85;68.40
55733;BME280;41637;52.364;9.910;2022-07-06T05:20:18;101573.50;;;15.89;68.37
55733;BME280;41637;52.364;9.910;2022-07-06T05:22:45;101574.05;;;15.96;68.32
55733;BME280;41637;52.364;9.910;2022-07-06T05:25:12;101577.56;;;16.02;67.76
55733;BME280;41637;52.364;9.910;2022-07-06T05:27:39;101579.25;;;16.03;67.66
55733;BME280;41637;52.364;9.910;2022-07-06T05:30:06;101578.40;;;16.03;67.61
55733;BME280;41637;52.364;9.910;2022-07-06T05:32:34;101585.16;;;16.05;67.65
55733;BME280;41637;52.364;9.910;2022-07-06T05:35:00;101590.20;;;16.03;67.72
55733;BME280;41637;52.364;9.910;2022-07-06T05:37:47;101588.57;;;16.04;67.79
55733;BME280;41637;52.364;9.910;2022-07-06T05:40:14;101588.55;;;16.10;67.86
55733;BME280;41637;52.364;9.910;2022-07-06T05:42:41;101589.93;;;16.19;67.80
55733;BME280;41637;52.364;9.910;2022-07-06T05:45:09;101591.62;;;16.24;67.19
55733;BME280;41637;52.364;9.910;2022-07-06T05:47:35;101587.91;;;16.27;67.09
55733;BME280;41637;52.364;9.910;2022-07-06T05:50:20;101585.66;;;16.34;66.84
55733;BME280;41637;52.364;9.910;2022-07-06T05:53:02;101590.23;;;16.42;66.67
55733;BME280;41637;52.364;9.910;2022-07-06T05:55:38;101591.77;;;16.45;66.20
55733;BME280;41637;52.364;9.910;2022-07-06T05:58:05;101590.80;;;16.49;65.93
55733;BME280;41637;52.364;9.910;2022-07-06T06:00:32;101589.15;;;16.53;65.76
55733;BME280;41637;52.364;9.910;2022-07-06T06:02:59;101587.98;;;16.54;65.72
55733;BME280;41637;52.364;9.910;2022-07-06T06:05:26;101592.23;;;16.57;65.05
55733;BME280;41637;52.364;9.910;2022-07-06T06:07:53;101592.23;;;16.61;64.80
55733;BME280;41637;52.364;9.910;2022-07-06T06:10:20;101594.31;;;16.70;64.82
55733;BME280;41637;52.364;9.910;2022-07-06T06:12:48;101594.83;;;16.76;64.40
55733;BME280;41637;52.364;9.910;2022-07-06T06:15:15;101600.55;;;16.72;64.26
55733;BME280;41637;52.364;9.910;2022-07-06T06:17:42;101600.72;;;16.70;64.91
55733;BME280;41637;52.364;9.910;2022-07-06T06:20:11;101596.44;;;16.78;64.88
55733;BME280;41637;52.364;9.910;2022-07-06T06:22:55;101601.62;;;16.82;64.24
55733;BME280;41637;52.364;9.910;2022-07-06T06:25:34;101600.25;;;16.86;64.20
55733;BME280;41637;52.364;9.910;2022-07-06T06:28:02;101601.63;;;16.90;64.06
55733;BME280;41637;52.364;9.910;2022-07-06T06:30:30;101602.37;;;16.99;63.94
55733;BME280;41637;52.364;9.910;2022-07-06T06:33:12;101604.39;;;17.11;63.49
55733;BME280;41637;52.364;9.910;2022-07-06T06:35:43;101608.08;;;17.20;62.82
55733;BME280;41637;52.364;9.910;2022-07-06T06:38:10;101608.46;;;17.28;62.62
55733;BME280;41637;52.364;9.910;2022-07-06T06:40:37;101604.20;;;17.34;62.46
55733;BME280;41637;52.364;9.910;2022-07-06T06:43:05;101605.50;;;17.45;62.20
55733;BME280;41637;52.364;9.910;2022-07-06T06:45:31;101608.66;;;17.48;61.26
55733;BME280;41637;52.364;9.910;2022-07-06T06:47:59;101609.41;;;17.44;60.07
55733;BME280;41637;52.364;9.910;2022-07-06T06:50:26;101611.23;;;17.42;60.86
55733;BME280;41637;52.364;9.910;2022-07-06T06:52:53;101609.11;;;17.42;60.67
55733;BME280;41637;52.364;9.910;2022-07-06T06:55:21;101619.52;;;17.42;60.10
55733;BME280;41637;52.364;9.910;2022-07-06T06:57:47;101624.59;;;17.43;59.41
55733;BME280;41637;52.364;9.910;2022-07-06T07:00:15;101619.02;;;17.41;59.30
55733;BME280;41637;52.364;9.910;2022-07-06T07:02:42;101622.80;;;17.44;59.73
55733;BME280;41637;52.364;9.910;2022-07-06T07:05:10;101624.10;;;17.41;59.66
55733;BME280;41637;52.364;9.910;2022-07-06T07:07:37;101625.35;;;17.43;59.78
55733;BME280;41637;52.364;9.910;2022-07-06T07:10:05;101628.01;;;17.47;59.67
55733;BME280;41637;52.364;9.910;2022-07-06T07:12:32;101629.12;;;17.54;59.90
55733;BME280;41637;52.364;9.910;2022-07-06T07:15:00;101627.91;;;17.53;59.65
55733;BME280;41637;52.364;9.910;2022-07-06T07:17:27;101631.79;;;17.45;59.74
55733;BME280;41637;52.364;9.910;2022-07-06T07:19:53;101631.48;;;17.46;59.79
55733;BME280;41637;52.364;9.910;2022-07-06T07:22:22;101634.32;;;17.48;59.45
55733;BME280;41637;52.364;9.910;2022-07-06T07:24:49;101634.23;;;17.39;58.86
55733;BME280;41637;52.364;9.910;2022-07-06T07:27:16;101637.27;;;17.37;59.24
55733;BME280;41637;52.364;9.910;2022-07-06T07:29:43;101643.35;;;17.40;59.24
55733;BME280;41637;52.364;9.910;2022-07-06T07:32:11;101645.70;;;17.40;59.04
55733;BME280;41637;52.364;9.910;2022-07-06T07:34:37;101651.98;;;17.27;58.55
55733;BME280;41637;52.364;9.910;2022-07-06T07:37:04;101650.17;;;17.23;58.50
55733;BME280;41637;52.364;9.910;2022-07-06T07:39:31;101660.02;;;17.22;57.22
55733;BME280;41637;52.364;9.910;2022-07-06T07:41:58;101660.93;;;17.27;57.22
55733;BME280;41637;52.364;9.910;2022-07-06T07:44:25;101661.65;;;17.31;57.90
55733;BME280;41637;52.364;9.910;2022-07-06T07:46:53;101654.98;;;17.46;57.35
55733;BME280;41637;52.364;9.910;2022-07-06T07:49:20;101656.91;;;17.56;55.55
55733;BME280;41637;52.364;9.910;2022-07-06T07:51:49;101649.65;;;17.66;54.41
55733;BME280;41637;52.364;9.910;2022-07-06T07:54:16;101655.27;;;17.77;52.69
55733;BME280;41637;52.364;9.910;2022-07-06T07:56:43;101654.17;;;17.87;52.10
55733;BME280;41637;52.364;9.910;2022-07-06T07:59:10;101657.05;;;17.97;52.09
55733;BME280;41637;52.364;9.910;2022-07-06T08:01:37;101654.83;;;18.09;51.73
55733;BME280;41637;52.364;9.910;2022-07-06T08:04:04;101652.61;;;18.26;51.55
55733;BME280;41637;52.364;9.910;2022-07-06T08:06:31;101659.30;;;18.38;51.14
55733;BME280;41637;52.364;9.910;2022-07-06T08:08:59;101659.95;;;18.34;50.24
55733;BME280;41637;52.364;9.910;2022-07-06T08:11:26;101653.69;;;18.43;49.89
55733;BME280;41637;52.364;9.910;2022-07-06T08:13:52;101649.28;;;18.53;50.07
55733;BME280;41637;52.364;9.910;2022-07-06T08:16:19;101652.02;;;18.62;49.68
55733;BME280;41637;52.364;9.910;2022-07-06T08:18:46;101651.52;;;18.60;48.70
55733;BME280;41637;52.364;9.910;2022-07-06T08:21:13;101648.30;;;18.65;48.72
55733;BME280;41637;52.364;9.910;2022-07-06T08:23:50;101656.45;;;18.70;49.56
55733;BME280;41637;52.364;9.910;2022-07-06T08:26:17;101656.98;;;18.69;50.09
55733;BME280;41637;52.364;9.910;2022-07-06T08:28:45;101656.86;;;18.71;50.34
55733;BME280;41637;52.364;9.910;2022-07-06T08:31:11;101663.80;;;18.61;50.31
55733;BME280;41637;52.364;9.910;2022-07-06T08:33:58;101658.66;;;18.54;50.23
55733;BME280;41637;52.364;9.910;2022-07-06T08:36:26;101654.77;;;18.54;50.25
55733;BME280;41637;52.364;9.910;2022-07-06T08:38:53;101656.23;;;18.60;50.49
55733;BME280;41637;52.364;9.910;2022-07-06T08:41:25;101655.77;;;18.75;50.77
55733;BME280;41637;52.364;9.910;2022-07-06T08:43:53;101651.20;;;18.90;50.46
55733;BME280;41637;52.364;9.910;2022-07-06T08:46:21;101649.33;;;18.99;49.85
55733;BME280;41637;52.364;9.910;2022-07-06T08:48:49;101649.29;;;19.09;48.99
55733;BME280;41637;52.364;9.910;2022-07-06T08:51:16;101645.14;;;19.15;48.30
55733;BME280;41637;52.364;9.910;2022-07-06T08:53:45;101643.89;;;19.21;47.59
55733;BME280;41637;52.364;9.910;2022-07-06T08:56:16;101645.69;;;19.40;47.31
55733;BME280;41637;52.364;9.910;2022-07-06T08:58:43;101648.15;;;19.46;44.49
55733;BME280;41637;52.364;9.910;2022-07-06T09:01:10;101643.46;;;19.36;45.84
55733;BME280;41637;52.364;9.910;2022-07-06T09:03:41;101644.16;;;19.36;46.68
55733;BME280;41637;52.364;9.910;2022-07-06T09:06:08;101647.90;;;19.25;47.50
55733;BME280;41637;52.364;9.910;2022-07-06T09:08:35;101646.18;;;19.16;47.74
55733;BME280;41637;52.364;9.910;2022-07-06T09:11:06;101644.54;;;19.07;47.37
55733;BME280;41637;52.364;9.910;2022-07-06T09:13:34;101643.86;;;19.09;47.50
55733;BME280;41637;52.364;9.910;2022-07-06T09:16:14;101646.35;;;19.06;47.52
55733;BME280;41637;52.364;9.910;2022-07-06T09:19:02;101643.24;;;19.10;48.05
55733;BME280;41637;52.364;9.910;2022-07-06T09:21:30;101648.03;;;19.26;47.97
55733;BME280;41637;52.364;9.910;2022-07-06T09:24:10;101653.03;;;19.53;47.13
55733;BME280;41637;52.364;9.910;2022-07-06T09:26:38;101656.80;;;19.66;46.07
55733;BME280;41637;52.364;9.910;2022-07-06T09:29:05;101652.16;;;19.68;45.57
55733;BME280;41637;52.364;9.910;2022-07-06T09:31:33;101645.54;;;19.71;45.59
55733;BME280;41637;52.364;9.910;2022-07-06T09:34:02;101647.23;;;19.77;45.67
55733;BME280;41637;52.364;9.910;2022-07-06T09:36:43;101642.42;;;20.05;45.24
55733;BME280;41637;52.364;9.910;2022-07-06T09:39:15;101635.63;;;20.39;44.41
55733;BME280;41637;52.364;9.910;2022-07-06T09:41:47;101638.95;;;20.61;43.54
55733;BME280;41637;52.364;9.910;2022-07-06T09:44:28;101630.09;;;20.67;42.97
55733;BME280;41637;52.364;9.910;2022-07-06T09:46:57;101638.03;;;20.68;41.80
55733;BME280;41637;52.364;9.910;2022-07-06T09:49:24;101633.36;;;20.84;41.37
55733;BME280;41637;52.364;9.910;2022-07-06T09:51:54;101631.63;;;20.78;41.66
55733;BME280;41637;52.364;9.910;2022-07-06T09:54:22;101635.91;;;20.71;41.54
55733;BME280;41637;52.364;9.910;2022-07-06T09:56:49;101634.45;;;20.58;41.76
55733;BME280;41637;52.364;9.910;2022-07-06T09:59:25;101624.21;;;20.36;42.04
55733;BME280;41637;52.364;9.910;2022-07-06T10:01:57;101637.16;;;20.13;42.77
55733;BME280;41637;52.364;9.910;2022-07-06T10:04:26;101635.35;;;19.94;43.47
55733;BME280;41637;52.364;9.910;2022-07-06T10:06:54;101637.21;;;19.83;43.97
55733;BME280;41637;52.364;9.910;2022-07-06T10:09:23;101637.61;;;19.76;43.37
55733;BME280;41637;52.364;9.910;2022-07-06T10:11:58;101630.83;;;19.75;43.31
55733;BME280;41637;52.364;9.910;2022-07-06T10:14:28;101632.67;;;19.81;43.60
55733;BME280;41637;52.364;9.910;2022-07-06T10:16:56;101634.98;;;19.81;43.76
55733;BME280;41637;52.364;9.910;2022-07-06T10:19:24;101628.60;;;19.91;44.22
55733;BME280;41637;52.364;9.910;2022-07-06T10:21:52;101629.67;;;20.04;43.49
55733;BME280;41637;52.364;9.910;2022-07-06T10:24:20;101629.20;;;20.21;43.48
55733;BME280;41637;52.364;9.910;2022-07-06T10:26:48;101639.48;;;20.41;42.53
55733;BME280;41637;52.364;9.910;2022-07-06T10:29:15;101635.69;;;20.50;41.93
55733;BME280;41637;52.364;9.910;2022-07-06T10:31:47;101636.47;;;20.53;41.93
55733;BME280;41637;52.364;9.910;2022-07-06T10:34:16;101647.79;;;20.37;41.68
55733;BME280;41637;52.364;9.910;2022-07-06T10:36:49;101644.60;;;20.23;42.11
55733;BME280;41637;52.364;9.910;2022-07-06T10:39:32;101639.08;;;20.19;41.98
55733;BME280;41637;52.364;9.910;2022-07-06T10:42:50;101640.34;;;20.16;40.97
55733;BME280;41637;52.364;9.910;2022-07-06T10:50:55;101636.66;;;20.27;40.68
55733;BME280;41637;52.364;9.910;2022-07-06T10:53:27;101630.09;;;20.24;40.05
55733;BME280;41637;52.364;9.910;2022-07-06T10:55:55;101632.48;;;20.18;40.09
55733;BME280;41637;52.364;9.910;2022-07-06T10:58:36;101632.55;;;19.99;40.32
55733;BME280;41637;52.364;9.910;2022-07-06T11:01:08;101633.05;;;19.99;40.38
55733;BME280;41637;52.364;9.910;2022-07-06T11:03:48;101635.07;;;20.07;39.56
55733;BME280;41637;52.364;9.910;2022-07-06T11:06:21;101622.88;;;20.19;39.17
55733;BME280;41637;52.364;9.910;2022-07-06T11:11:25;101618.17;;;20.47;38.57
55733;BME280;41637;52.364;9.910;2022-07-06T11:14:08;101619.81;;;20.52;37.98
55733;BME280;41637;52.364;9.910;2022-07-06T11:19:27;101621.89;;;20.70;38.36
55733;BME280;41637;52.364;9.910;2022-07-06T11:22:05;101612.70;;;20.87;37.29
55733;BME280;41637;52.364;9.910;2022-07-06T11:24:34;101613.71;;;21.16;36.81
55733;BME280;41637;52.364;9.910;2022-07-06T11:27:01;101611.98;;;21.35;36.25
55733;BME280;41637;52.364;9.910;2022-07-06T11:29:29;101611.97;;;21.54;36.52
55733;BME280;41637;52.364;9.910;2022-07-06T11:31:57;101613.77;;;21.49;35.97
55733;BME280;41637;52.364;9.910;2022-07-06T11:34:32;101612.91;;;21.43;35.76
55733;BME280;41637;52.364;9.910;2022-07-06T11:39:27;101617.02;;;21.25;36.99
55733;BME280;41637;52.364;9.910;2022-07-06T11:41:55;101614.25;;;20.99;37.48
55733;BME280;41637;52.364;9.910;2022-07-06T11:44:22;101606.30;;;20.74;38.02
55733;BME280;41637;52.364;9.910;2022-07-06T11:46:49;101609.06;;;20.52;38.37
55733;BME280;41637;52.364;9.910;2022-07-06T11:49:17;101607.30;;;20.35;38.90
55733;BME280;41637;52.364;9.910;2022-07-06T11:51:45;101607.90;;;20.21;39.27
55733;BME280;41637;52.364;9.910;2022-07-06T11:54:14;101608.70;;;20.04;39.36
55733;BME280;41637;52.364;9.910;2022-07-06T11:56:48;101613.40;;;19.93;40.16
55733;BME280;41637;52.364;9.910;2022-07-06T11:59:16;101608.13;;;19.86;40.86
55733;BME280;41637;52.364;9.910;2022-07-06T12:01:43;101609.02;;;19.79;40.81
55733;BME280;41637;52.364;9.910;2022-07-06T12:04:11;101603.37;;;19.76;41.03
55733;BME280;41637;52.364;9.910;2022-07-06T12:06:38;101604.23;;;19.79;41.09
55733;BME280;41637;52.364;9.910;2022-07-06T12:09:10;101608.73;;;19.83;41.21
55733;BME280;41637;52.364;9.910;2022-07-06T12:11:37;101601.85;;;19.91;40.76
55733;BME280;41637;52.364;9.910;2022-07-06T12:14:14;101602.29;;;20.08;40.75
55733;BME280;41637;52.364;9.910;2022-07-06T12:16:42;101599.38;;;20.19;40.25
55733;BME280;41637;52.364;9.910;2022-07-06T12:19:09;101601.64;;;20.21;39.56
55733;BME280;41637;52.364;9.910;2022-07-06T12:21:49;101606.47;;;20.17;39.37
55733;BME280;41637;52.364;9.910;2022-07-06T12:24:23;101604.05;;;20.12;39.59
55733;BME280;41637;52.364;9.910;2022-07-06T12:26:51;101603.46;;;20.06;39.71
55733;BME280;41637;52.364;9.910;2022-07-06T12:29:19;101606.15;;;20.10;40.42
55733;BME280;41637;52.364;9.910;2022-07-06T12:31:50;101608.33;;;20.04;40.23
55733;BME280;41637;52.364;9.910;2022-07-06T12:34:20;101600.61;;;20.06;40.04
55733;BME280;41637;52.364;9.910;2022-07-06T12:36:57;101596.22;;;20.26;39.88
55733;BME280;41637;52.364;9.910;2022-07-06T12:39:41;101600.34;;;20.55;39.57
55733;BME280;41637;52.364;9.910;2022-07-06T12:42:08;101595.23;;;20.86;38.70
55733;BME280;41637;52.364;9.910;2022-07-06T12:44:45;101596.91;;;21.10;37.98
55733;BME280;41637;52.364;9.910;2022-07-06T12:47:16;101593.85;;;21.30;37.81
55733;BME280;41637;52.364;9.910;2022-07-06T12:49:43;101599.10;;;21.71;37.25
55733;BME280;41637;52.364;9.910;2022-07-06T12:52:12;101592.90;;;21.97;36.96
55733;BME280;41637;52.364;9.910;2022-07-06T12:54:43;101587.29;;;22.38;36.94
55733;BME280;41637;52.364;9.910;2022-07-06T12:59:47;101581.64;;;23.43;34.93
55733;BME280;41637;52.364;9.910;2022-07-06T13:02:31;101585.30;;;24.10;33.82
55733;BME280;41637;52.364;9.910;2022-07-06T13:05:23;101583.31;;;24.27;33.18
55733;BME280;41637;52.364;9.910;2022-07-06T13:07:56;101583.64;;;24.08;33.34
55733;BME280;41637;52.364;9.910;2022-07-06T13:10:24;101580.37;;;23.76;33.94
55733;BME280;41637;52.364;9.910;2022-07-06T13:12:51;101581.83;;;24.04;33.03
55733;BME280;41637;52.364;9.910;2022-07-06T13:15:19;101576.41;;;24.55;31.45